Time;durP1;ratioP1;P1;durP2;ratioP2;P2;SDS_P1;SDS_P2;PMS_P1;PMS_P2;Temp;Humidity;BMP_temperature;BMP_pressure;BME280_temperature;BME280_humidity;BME280_pressure;Samples;Min_cycle;Max_cycle;Signal;HPM_P1;HPM_P2
2023/03/16 00:00:12;;;;;;;5.47;2.50;;;;;;;4.87;82.15;101773.50;4929308;29;20082;-76
2023/03/16 00:02:42;;;;;;;5.97;2.92;;;;;;;4.93;82.46;101765.34;4907369;29;20410;-76
2023/03/16 00:05:11;;;;;;;7.85;2.70;;;;;;;4.89;80.58;101766.47;4917005;29;20064;-74
2023/03/16 00:07:38;;;;;;;6.57;2.90;;;;;;;4.91;81.46;101767.22;4912940;29;20048;-72
2023/03/16 00:10:05;;;;;;;5.63;3.15;;;;;;;4.94;81.09;101762.69;4887375;29;20545;-75
2023/03/16 00:12:33;;;;;;;7.03;2.53;;;;;;;4.96;81.06;101767.81;4891272;29;20139;-73
2023/03/16 00:15:00;;;;;;;5.90;2.70;;;;;;;5.01;80.17;101767.53;4904997;29;20114;-76
2023/03/16 00:17:27;;;;;;;4.38;2.85;;;;;;;4.94;80.09;101770.47;4910310;29;20048;-76
2023/03/16 00:19:56;;;;;;;3.75;2.30;;;;;;;4.95;80.37;101774.75;4904173;29;20286;-76
2023/03/16 00:22:28;;;;;;;5.13;2.25;;;;;;;5.03;80.39;101787.31;4908882;29;20509;-76
2023/03/16 00:24:56;;;;;;;6.38;2.47;;;;;;;5.03;79.88;101791.69;4903833;29;20052;-76
2023/03/16 00:27:24;;;;;;;5.18;2.28;;;;;;;5.00;79.50;101784.03;4902104;29;20119;-75
2023/03/16 00:29:55;;;;;;;5.20;2.80;;;;;;;4.94;80.35;101780.88;4916492;29;20052;-74
2023/03/16 00:32:27;;;;;;;5.93;2.63;;;;;;;4.99;80.84;101771.97;4905116;29;20513;-75
2023/03/16 00:34:55;;;;;;;6.22;2.40;;;;;;;4.99;80.63;101774.56;4908130;29;20083;-74
2023/03/16 00:37:22;;;;;;;8.15;3.03;;;;;;;4.94;80.02;101762.69;4899243;29;20058;-73
2023/03/16 00:39:50;;;;;;;4.00;2.30;;;;;;;4.95;80.66;101758.31;4891798;29;20056;-76
2023/03/16 00:42:18;;;;;;;5.13;2.55;;;;;;;5.01;81.44;101751.94;4906182;29;20052;-76
2023/03/16 00:44:45;;;;;;;5.88;2.45;;;;;;;5.06;81.22;101752.50;4907428;29;20083;-76
2023/03/16 00:47:13;;;;;;;5.72;3.00;;;;;;;5.11;80.94;101748.69;4908853;29;20056;-75
2023/03/16 00:49:42;;;;;;;6.60;2.60;;;;;;;5.06;80.03;101748.13;4901264;29;20091;-74
2023/03/16 00:52:13;;;;;;;7.75;3.20;;;;;;;5.12;81.38;101733.94;4904296;29;20048;-74
2023/03/16 00:54:42;;;;;;;6.15;2.53;;;;;;;5.08;82.03;101732.44;4902332;29;20108;-73
2023/03/16 00:57:10;;;;;;;5.28;2.70;;;;;;;5.09;83.78;101726.31;4902198;29;20510;-75
2023/03/16 00:59:37;;;;;;;6.85;2.70;;;;;;;5.12;82.05;101729.56;4902701;29;20052;-76
2023/03/16 01:02:06;;;;;;;4.35;2.80;;;;;;;5.13;81.52;101726.03;4908344;29;20048;-74
2023/03/16 01:04:34;;;;;;;;;;;;;;;5.17;82.35;101718.06;4902835;29;20505;-73
2023/03/16 01:07:02;;;;;;;4.88;2.38;;;;;;;5.13;82.50;101710.44;4897333;29;19933;-75
2023/03/16 01:09:29;;;;;;;9.68;3.08;;;;;;;5.13;83.35;101715.63;4898847;29;20068;-72
2023/03/16 01:11:58;;;;;;;6.93;3.20;;;;;;;5.14;82.44;101716.50;4905374;29;20083;-76
2023/03/16 01:14:24;;;;;;;5.78;2.72;;;;;;;5.10;83.28;101715.81;4910831;29;20056;-75
2023/03/16 01:16:51;;;;;;;5.53;2.70;;;;;;;5.11;83.50;101708.84;4899554;29;20780;-73
2023/03/16 01:19:18;;;;;;;4.88;2.75;;;;;;;5.15;84.35;101718.16;4904360;29;20048;-76
2023/03/16 01:21:44;;;;;;;5.32;2.53;;;;;;;5.18;83.35;101715.38;4909284;29;20510;-76
2023/03/16 01:24:11;;;;;;;6.53;2.55;;;;;;;5.24;83.47;101707.22;4901623;29;20588;-74
2023/03/16 01:26:37;;;;;;;6.93;2.50;;;;;;;5.22;82.80;101706.47;4911428;29;20076;-76
2023/03/16 01:29:04;;;;;;;4.93;2.33;;;;;;;5.15;83.99;101711.22;4901343;29;20453;-77
2023/03/16 01:31:31;;;;;;;6.35;2.28;;;;;;;5.22;83.98;101696.06;4904782;29;20459;-76
2023/03/16 01:33:57;;;;;;;5.55;3.13;;;;;;;5.24;84.31;101691.59;4899731;29;20561;-76
2023/03/16 01:36:24;;;;;;;4.38;2.40;;;;;;;5.25;83.15;101688.09;4909041;29;20063;-76
2023/03/16 01:38:50;;;;;;;5.05;2.50;;;;;;;5.30;83.75;101695.63;4908999;29;20052;-74
2023/03/16 01:41:17;;;;;;;5.18;2.80;;;;;;;5.28;84.16;101695.69;4903247;29;20055;-76
2023/03/16 01:43:43;;;;;;;4.63;2.55;;;;;;;5.29;83.30;101686.13;4906026;29;20059;-76
2023/03/16 01:46:20;;;;;;;5.13;2.72;;;;;;;5.24;82.81;101681.19;4895714;29;20056;-75
2023/03/16 01:49:02;;;;;;;4.88;2.50;;;;;;;5.32;83.84;101672.94;4910370;29;20091;-76
2023/03/16 01:51:36;;;;;;;4.40;2.75;;;;;;;5.26;83.44;101671.53;4898511;29;20059;-76
2023/03/16 01:54:17;;;;;;;4.07;2.40;;;;;;;5.24;82.38;101667.38;4909139;29;20052;-75
2023/03/16 01:57:08;;;;;;;4.13;2.30;;;;;;;5.14;83.67;101657.50;4900230;29;20059;-76
2023/03/16 01:59:49;;;;;;;3.65;2.42;;;;;;;5.14;83.50;101661.88;4899916;29;20414;-74
2023/03/16 02:02:20;;;;;;;5.32;2.40;;;;;;;5.14;83.00;101664.47;4910477;29;20052;-75
2023/03/16 02:05:00;;;;;;;3.60;2.65;;;;;;;5.11;83.96;101655.06;4904780;29;20581;-76
2023/03/16 02:07:30;;;;;;;3.53;2.47;;;;;;;5.16;84.10;101654.81;4887151;29;20048;-76
2023/03/16 02:10:01;;;;;;;4.85;2.72;;;;;;;5.12;83.66;101666.34;4907542;29;20054;-77
2023/03/16 02:12:29;;;;;;;7.07;2.70;;;;;;;5.18;83.96;101662.53;4914035;29;20044;-76
2023/03/16 02:14:55;;;;;;;3.30;2.50;;;;;;;5.11;85.20;101656.84;4903304;29;20497;-76
2023/03/16 02:17:25;;;;;;;5.82;2.83;;;;;;;5.09;85.13;101648.28;4900148;29;20795;-72
2023/03/16 02:20:06;;;;;;;4.40;2.85;;;;;;;5.14;86.11;101652.31;4909991;29;20112;-75
2023/03/16 02:22:35;;;;;;;6.03;2.78;;;;;;;5.04;85.09;101645.97;4915087;29;20048;-76
2023/03/16 02:25:02;;;;;;;7.13;2.70;;;;;;;5.07;84.29;101632.78;4912254;29;20112;-76
2023/03/16 02:28:06;;;;;;;4.78;2.50;;;;;;;5.10;86.13;101639.56;4900770;29;20140;-76
2023/03/16 02:30:33;;;;;;;5.97;2.67;;;;;;;5.10;86.03;101634.38;4917808;29;20072;-76
2023/03/16 02:33:00;;;;;;;4.45;2.85;;;;;;;5.05;86.39;101632.03;4911907;29;20044;-76
2023/03/16 02:35:27;;;;;;;9.02;2.85;;;;;;;4.98;85.65;101629.88;4913972;29;20153;-76
2023/03/16 02:37:53;;;;;;;4.38;2.78;;;;;;;5.04;86.77;101629.53;4900743;29;20055;-76
2023/03/16 02:40:22;;;;;;;5.72;3.03;;;;;;;5.06;86.29;101625.91;4910791;29;20058;-76
2023/03/16 02:43:01;;;;;;;5.97;3.15;;;;;;;5.09;86.58;101620.50;4905642;29;20048;-76
2023/03/16 02:45:35;;;;;;;5.60;2.47;;;;;;;5.14;86.57;101622.88;4916773;29;20048;-76
2023/03/16 02:48:06;;;;;;;5.50;2.40;;;;;;;5.17;85.98;101621.84;4914926;29;20060;-76
2023/03/16 02:50:33;;;;;;;6.72;3.05;;;;;;;5.08;85.79;101621.47;4908634;29;20085;-76
2023/03/16 02:52:59;;;;;;;3.88;2.40;;;;;;;5.14;86.92;101623.69;4899674;29;20127;-76
2023/03/16 02:55:26;;;;;;;5.07;2.80;;;;;;;5.24;86.38;101626.56;4904242;29;20033;-76
2023/03/16 02:57:52;;;;;;;7.07;2.92;;;;;;;5.18;86.00;101624.34;4915229;29;20051;-75
2023/03/16 03:00:20;;;;;;;4.75;2.60;;;;;;;5.27;86.40;101625.53;4907777;29;20099;-74
2023/03/16 03:02:47;;;;;;;4.50;2.60;;;;;;;5.21;86.08;101621.53;4915827;29;20163;-75
2023/03/16 03:05:14;;;;;;;5.28;3.00;;;;;;;5.25;87.09;101624.81;4892483;29;20295;-76
2023/03/16 03:07:40;;;;;;;5.07;3.10;;;;;;;5.24;86.57;101620.53;4901382;29;20070;-75
2023/03/16 03:10:07;;;;;;;6.15;2.75;;;;;;;5.29;86.36;101621.94;4916016;29;20059;-76
2023/03/16 03:12:34;;;;;;;3.33;2.60;;;;;;;5.22;86.52;101623.22;4910969;29;20068;-77
2023/03/16 03:15:01;;;;;;;5.50;3.45;;;;;;;5.18;87.35;101613.94;4920626;29;20152;-76
2023/03/16 03:17:28;;;;;;;4.85;2.70;;;;;;;5.17;87.13;101608.81;4911201;29;20044;-74
2023/03/16 03:20:01;;;;;;;7.47;3.17;;;;;;;5.20;88.11;101612.09;4906910;29;20056;-74
2023/03/16 03:22:27;;;;;;;3.85;2.42;;;;;;;5.26;87.25;101618.69;4904200;29;20154;-77
2023/03/16 03:24:54;;;;;;;4.50;2.72;;;;;;;5.27;87.41;101616.00;4914048;29;20058;-76
2023/03/16 03:27:21;;;;;;;5.88;2.55;;;;;;;5.25;87.06;101617.84;4915970;29;20060;-76
2023/03/16 03:29:48;;;;;;;5.50;3.00;;;;;;;5.31;87.77;101608.81;4912658;29;20441;-76
2023/03/16 03:32:14;;;;;;;5.65;3.17;;;;;;;5.19;88.26;101605.19;4907549;29;20082;-76
2023/03/16 03:34:41;;;;;;;5.40;3.10;;;;;;;5.11;88.42;101607.44;4900098;29;20163;-75
2023/03/16 03:37:08;;;;;;;4.03;2.72;;;;;;;5.07;89.50;101611.13;4910363;29;20048;-77
2023/03/16 03:39:34;;;;;;;6.35;2.80;;;;;;;5.03;89.61;101605.28;4918679;29;20052;-77
2023/03/16 03:42:01;;;;;;;5.28;2.75;;;;;;;5.04;89.79;101593.97;4904261;29;20064;-76
2023/03/16 03:44:28;;;;;;;4.82;2.55;;;;;;;5.04;89.73;101598.34;4912215;29;20449;-75
2023/03/16 03:46:54;;;;;;;6.03;2.85;;;;;;;5.03;89.40;101597.47;4897538;29;20105;-73
2023/03/16 03:49:21;;;;;;;6.97;3.30;;;;;;;5.04;90.97;101588.75;4907740;29;20083;-77
2023/03/16 03:51:48;;;;;;;3.97;2.80;;;;;;;4.97;92.70;101587.44;4904295;29;20152;-76
2023/03/16 03:54:14;;;;;;;4.20;2.67;;;;;;;4.94;92.82;101587.66;4909621;29;20080;-77
2023/03/16 03:56:41;;;;;;;4.93;2.95;;;;;;;4.93;92.75;101584.19;4899010;29;20540;-74
2023/03/16 03:59:08;;;;;;;4.75;2.95;;;;;;;4.83;94.82;101580.47;4903647;29;20052;-69
2023/03/16 04:01:34;;;;;;;4.38;2.70;;;;;;;4.84;95.54;101583.91;4890478;29;20127;-69
2023/03/16 04:04:01;;;;;;;4.28;2.30;;;;;;;4.79;96.77;101578.16;4903342;29;20052;-70
2023/03/16 04:06:27;;;;;;;3.90;2.50;;;;;;;4.69;96.70;101578.69;4910498;29;20256;-69
2023/03/16 04:08:54;;;;;;;5.82;2.97;;;;;;;4.83;98.27;101577.88;4912915;29;20056;-70
2023/03/16 04:11:20;;;;;;;4.15;2.67;;;;;;;4.70;98.42;101572.53;4900708;29;20068;-71
2023/03/16 04:13:50;;;;;;;4.65;2.80;;;;;;;4.69;100.00;101578.69;4904734;29;20048;-70
2023/03/16 04:16:17;;;;;;;5.00;3.00;;;;;;;4.60;100.00;101574.00;4900058;29;20059;-72
2023/03/16 04:18:45;;;;;;;5.60;3.45;;;;;;;4.60;100.00;101566.22;4909652;29;20115;-70
2023/03/16 04:21:15;;;;;;;5.82;3.45;;;;;;;4.55;100.00;101568.25;4904715;29;20066;-69
2023/03/16 04:23:42;;;;;;;5.78;3.83;;;;;;;4.53;100.00;101559.72;4894532;29;20067;-69
2023/03/16 04:26:09;;;;;;;6.32;3.35;;;;;;;4.63;100.00;101560.84;4905821;29;20056;-69
2023/03/16 04:28:36;;;;;;;5.13;3.20;;;;;;;4.60;100.00;101562.78;4901357;29;20054;-69
2023/03/16 04:31:08;;;;;;;6.00;3.00;;;;;;;4.64;100.00;101567.69;4907270;29;20163;-69
2023/03/16 04:33:35;;;;;;;6.35;3.13;;;;;;;4.59;100.00;101556.75;4902810;29;20143;-69
2023/03/16 04:36:04;;;;;;;6.38;3.40;;;;;;;4.52;100.00;101566.66;4909086;29;20201;-71
2023/03/16 04:38:34;;;;;;;5.72;3.08;;;;;;;4.45;100.00;101560.16;4906526;29;20079;-69
2023/03/16 04:41:03;;;;;;;5.95;3.13;;;;;;;4.49;100.00;101564.25;4903965;29;20055;-69
2023/03/16 04:43:33;;;;;;;6.60;3.17;;;;;;;4.54;100.00;101558.78;4898938;29;20511;-71
2023/03/16 04:46:01;;;;;;;5.07;2.90;;;;;;;4.55;100.00;101548.31;4907150;29;20044;-69
2023/03/16 04:48:28;;;;;;;5.30;2.97;;;;;;;4.54;100.00;101548.38;4909569;29;20350;-69
2023/03/16 04:50:55;;;;;;;4.32;2.75;;;;;;;4.64;100.00;101551.28;4900668;29;20507;-68
2023/03/16 04:53:21;;;;;;;3.72;2.97;;;;;;;4.65;100.00;101551.19;4909129;29;20056;-70
2023/03/16 04:55:48;;;;;;;4.47;2.63;;;;;;;4.67;100.00;101557.16;4894803;29;20052;-69
2023/03/16 04:58:14;;;;;;;6.53;2.97;;;;;;;4.55;100.00;101553.50;4912316;29;20044;-68
2023/03/16 05:00:41;;;;;;;6.25;3.40;;;;;;;4.48;100.00;101557.38;4901942;29;20071;-68
2023/03/16 05:03:13;;;;;;;11.23;3.45;;;;;;;4.47;100.00;101557.44;4908453;29;20048;-70
2023/03/16 05:05:39;;;;;;;5.13;3.03;;;;;;;4.41;100.00;101560.41;4908397;29;20056;-68
2023/03/16 05:08:06;;;;;;;5.53;2.70;;;;;;;4.45;100.00;101561.91;4901677;29;20048;-68
2023/03/16 05:10:33;;;;;;;6.18;3.22;;;;;;;4.45;100.00;101548.91;4904798;29;20056;-69
2023/03/16 05:13:00;;;;;;;5.40;3.00;;;;;;;4.47;100.00;101552.25;4902647;29;20052;-70
2023/03/16 05:15:26;;;;;;;4.60;3.10;;;;;;;4.47;100.00;101542.72;4908915;29;20139;-68
2023/03/16 05:17:54;;;;;;;4.45;2.88;;;;;;;4.57;100.00;101540.44;4903232;29;20056;-71
2023/03/16 05:20:22;;;;;;;6.18;3.30;;;;;;;4.60;100.00;101535.03;4912656;29;20051;-69
2023/03/16 05:22:48;;;;;;;5.57;3.25;;;;;;;4.66;100.00;101542.47;4904799;29;20063;-69
2023/03/16 05:25:16;;;;;;;5.75;2.50;;;;;;;4.72;100.00;101543.88;4901919;29;20054;-69
2023/03/16 05:27:49;;;;;;;4.22;2.80;;;;;;;4.69;100.00;101552.69;4908563;29;20091;-68
2023/03/16 05:30:17;;;;;;;5.72;3.05;;;;;;;4.61;100.00;101543.69;4898839;29;20497;-70
2023/03/16 05:32:44;;;;;;;5.80;2.97;;;;;;;4.58;100.00;101557.66;4908209;29;20240;-69
2023/03/16 05:35:12;;;;;;;3.80;2.67;;;;;;;4.55;100.00;101563.91;4901669;29;20128;-71
2023/03/16 05:37:40;;;;;;;6.32;2.80;;;;;;;4.55;100.00;101552.66;4900207;29;20111;-68
2023/03/16 05:40:21;;;;;;;7.07;3.70;;;;;;;4.60;100.00;101549.78;4907986;29;20059;-68
2023/03/16 05:42:53;;;;;;;4.55;2.60;;;;;;;4.72;100.00;101549.94;4902003;29;20068;-69
2023/03/16 05:45:20;;;;;;;3.92;2.80;;;;;;;4.63;100.00;101541.84;4909537;29;20043;-68
2023/03/16 05:47:46;;;;;;;5.40;3.15;;;;;;;4.63;100.00;101540.06;4888616;29;20058;-69
2023/03/16 05:50:15;;;;;;;6.30;3.00;;;;;;;4.64;100.00;101541.72;4902426;29;20048;-69
2023/03/16 05:52:43;;;;;;;5.25;3.03;;;;;;;4.68;100.00;101543.22;4899153;29;20079;-70
2023/03/16 05:55:12;;;;;;;8.02;3.33;;;;;;;4.75;100.00;101546.28;4895896;29;20059;-69
2023/03/16 05:57:38;;;;;;;4.22;2.70;;;;;;;4.72;100.00;101542.13;4908993;29;20532;-71
2023/03/16 06:00:17;;;;;;;8.60;3.17;;;;;;;4.76;100.00;101540.16;4908350;29;20060;-70
2023/03/16 06:02:48;;;;;;;3.75;2.97;;;;;;;4.81;100.00;101540.72;4903824;29;20402;-69
2023/03/16 06:05:16;;;;;;;5.38;2.92;;;;;;;4.81;100.00;101545.09;4895881;29;20055;-68
2023/03/16 06:07:43;;;;;;;5.43;2.95;;;;;;;4.79;100.00;101539.16;4908272;29;20178;-69
2023/03/16 06:10:11;;;;;;;5.03;3.03;;;;;;;4.76;100.00;101537.56;4902577;29;20557;-69
2023/03/16 06:12:38;;;;;;;6.17;3.10;;;;;;;4.88;100.00;101533.38;4907819;29;20044;-69
2023/03/16 06:15:07;;;;;;;9.25;3.25;;;;;;;4.88;100.00;101534.25;4906299;29;20044;-72
2023/03/16 06:17:35;;;;;;;7.28;3.63;;;;;;;4.85;100.00;101537.03;4899779;29;20052;-70
2023/03/16 06:20:09;;;;;;;3.65;2.80;;;;;;;4.91;100.00;101533.22;4909244;29;20091;-70
2023/03/16 06:22:40;;;;;;;6.57;3.42;;;;;;;5.00;100.00;101532.66;4878002;29;20052;-68
2023/03/16 06:25:08;;;;;;;6.90;3.10;;;;;;;4.94;100.00;101527.84;4896608;29;20079;-68
2023/03/16 06:27:35;;;;;;;;;;;;;;;5.03;100.00;101526.44;4902316;29;20058;-69
2023/03/16 06:30:03;;;;;;;4.78;2.83;;;;;;;5.09;100.00;101528.66;4903598;29;19923;-71
2023/03/16 06:32:30;;;;;;;7.03;3.03;;;;;;;5.10;100.00;101528.56;4895035;29;20079;-68
2023/03/16 06:35:00;;;;;;;8.48;2.72;;;;;;;5.07;100.00;101520.94;4905153;29;20052;-70
2023/03/16 06:37:28;;;;;;;6.20;2.80;;;;;;;5.17;100.00;101530.81;4908140;29;20084;-70
2023/03/16 06:39:55;;;;;;;6.85;3.20;;;;;;;5.10;100.00;101535.56;4900397;29;20425;-69
2023/03/16 06:42:22;;;;;;;6.10;2.92;;;;;;;4.99;100.00;101528.38;4907676;29;20079;-70
2023/03/16 06:44:49;;;;;;;4.27;2.83;;;;;;;5.03;100.00;101529.88;4896792;29;20657;-69
2023/03/16 06:47:15;;;;;;;6.65;3.42;;;;;;;5.08;100.00;101527.00;4902218;29;20056;-70
2023/03/16 06:49:42;;;;;;;5.28;3.17;;;;;;;5.13;100.00;101528.38;4904691;29;20064;-69
2023/03/16 06:52:12;;;;;;;4.88;2.80;;;;;;;5.19;100.00;101527.16;4904373;29;20176;-69
2023/03/16 06:54:40;;;;;;;7.05;3.13;;;;;;;5.21;100.00;101521.88;4909219;29;20566;-69
2023/03/16 06:57:07;;;;;;;15.88;3.35;;;;;;;5.22;100.00;101526.16;4908177;29;20056;-69
2023/03/16 06:59:34;;;;;;;6.38;3.10;;;;;;;5.23;100.00;101526.03;4913087;29;20079;-69
2023/03/16 07:02:00;;;;;;;6.68;3.08;;;;;;;5.18;100.00;101530.72;4907174;29;20054;-69
2023/03/16 07:04:27;;;;;;;4.30;2.92;;;;;;;5.23;100.00;101533.84;4914429;29;20052;-69
2023/03/16 07:06:54;;;;;;;8.23;3.15;;;;;;;5.18;100.00;101535.91;4920067;29;20055;-69
2023/03/16 07:09:21;;;;;;;4.25;3.13;;;;;;;5.27;100.00;101532.75;4894874;29;20048;-69
2023/03/16 07:11:47;;;;;;;5.93;3.13;;;;;;;5.32;100.00;101529.88;4898586;29;20051;-71
2023/03/16 07:14:14;;;;;;;6.32;3.17;;;;;;;5.36;100.00;101528.75;4909202;29;20127;-70
2023/03/16 07:16:41;;;;;;;6.78;3.30;;;;;;;5.30;100.00;101527.34;4918897;29;20056;-69
2023/03/16 07:19:07;;;;;;;6.40;3.20;;;;;;;5.29;100.00;101524.84;4917317;29;20471;-69
2023/03/16 07:21:38;;;;;;;4.00;2.60;;;;;;;5.37;100.00;101521.75;4923459;29;20147;-69
2023/03/16 07:24:07;;;;;;;6.72;3.33;;;;;;;5.35;100.00;101521.84;4911848;29;20490;-69
2023/03/16 07:26:35;;;;;;;7.15;3.50;;;;;;;5.49;100.00;101521.03;4910976;29;20135;-69
2023/03/16 07:29:05;;;;;;;5.68;3.45;;;;;;;5.50;100.00;101525.28;4913140;29;20055;-70
2023/03/16 07:31:33;;;;;;;5.80;3.78;;;;;;;5.49;100.00;101526.22;4911948;29;20052;-70
2023/03/16 07:34:01;;;;;;;7.63;3.20;;;;;;;5.45;100.00;101529.91;4915723;29;20048;-69
2023/03/16 07:36:28;;;;;;;4.65;3.10;;;;;;;5.41;100.00;101531.91;4910335;29;20394;-69
2023/03/16 07:38:54;;;;;;;6.97;3.40;;;;;;;5.38;100.00;101533.84;4920235;29;20059;-69
2023/03/16 07:41:21;;;;;;;4.95;3.38;;;;;;;5.42;100.00;101533.56;4905324;29;20048;-72
2023/03/16 07:43:47;;;;;;;9.20;3.70;;;;;;;5.44;100.00;101523.06;4914130;29;20051;-70
2023/03/16 07:46:14;;;;;;;6.55;3.55;;;;;;;5.38;100.00;101534.69;4916222;29;20066;-71
2023/03/16 07:48:42;;;;;;;6.15;3.67;;;;;;;5.44;100.00;101523.06;4915800;29;20570;-69
2023/03/16 07:51:11;;;;;;;4.78;3.05;;;;;;;5.36;100.00;101518.34;4918955;29;20055;-71
2023/03/16 07:53:40;;;;;;;;;;;;;;;5.41;100.00;101526.69;4911479;29;20125;-70
2023/03/16 07:56:11;;;;;;;6.75;3.33;;;;;;;5.42;100.00;101517.94;4919443;29;19923;-69
2023/03/16 07:58:38;;;;;;;12.88;3.65;;;;;;;5.49;100.00;101518.41;4930858;29;20039;-72
2023/03/16 08:01:04;;;;;;;6.88;3.67;;;;;;;5.47;100.00;101518.50;4934944;29;20072;-71
2023/03/16 08:03:31;;;;;;;5.15;3.15;;;;;;;5.50;100.00;101520.06;4929621;29;20052;-69
2023/03/16 08:05:58;;;;;;;5.07;3.33;;;;;;;5.41;100.00;101515.44;4912162;29;20754;-71
2023/03/16 08:08:26;;;;;;;5.53;3.60;;;;;;;5.40;100.00;101512.00;4916475;29;20044;-71
2023/03/16 08:10:53;;;;;;;8.27;4.30;;;;;;;5.44;100.00;101517.84;4915202;29;20103;-72
2023/03/16 08:13:22;;;;;;;5.97;3.30;;;;;;;5.41;100.00;101518.03;4915019;29;20138;-67
2023/03/16 08:15:57;;;;;;;6.90;3.50;;;;;;;5.50;100.00;101515.69;4907378;29;20403;-70
2023/03/16 08:18:25;;;;;;;6.72;3.22;;;;;;;5.52;100.00;101508.63;4897650;29;20063;-70
2023/03/16 08:20:52;;;;;;;4.43;2.92;;;;;;;5.45;100.00;101509.97;4912098;29;20513;-68
2023/03/16 08:23:20;;;;;;;5.97;3.70;;;;;;;5.47;100.00;101517.66;4903638;29;20048;-69
2023/03/16 08:25:50;;;;;;;7.90;3.17;;;;;;;5.50;100.00;101520.91;4912759;29;20055;-69
2023/03/16 08:28:20;;;;;;;7.82;3.70;;;;;;;5.55;100.00;101518.03;4901769;29;20056;-68
2023/03/16 08:30:48;;;;;;;8.65;3.85;;;;;;;5.60;100.00;101512.53;4915126;29;20048;-67
2023/03/16 08:33:16;;;;;;;6.85;3.55;;;;;;;5.63;100.00;101518.38;4905346;29;20095;-68
2023/03/16 08:35:44;;;;;;;7.32;3.92;;;;;;;5.77;100.00;101514.88;4905617;29;20055;-68
2023/03/16 08:38:11;;;;;;;5.80;3.60;;;;;;;5.81;100.00;101520.75;4909716;29;20501;-70
2023/03/16 08:40:47;;;;;;;6.85;3.75;;;;;;;5.92;100.00;101503.50;4912234;29;20130;-69
2023/03/16 08:43:14;;;;;;;6.05;3.70;;;;;;;5.91;100.00;101496.59;4913200;29;20434;-68
2023/03/16 08:45:44;;;;;;;7.05;3.60;;;;;;;6.04;100.00;101495.84;4907165;29;20108;-68
2023/03/16 08:48:11;;;;;;;6.93;3.70;;;;;;;6.05;100.00;101487.09;4910317;29;20087;-69
2023/03/16 08:50:40;;;;;;;4.80;3.20;;;;;;;6.15;100.00;101485.53;4904245;29;20070;-68
2023/03/16 08:53:06;;;;;;;7.15;3.75;;;;;;;6.17;100.00;101490.66;4912449;29;20442;-68
2023/03/16 08:55:35;;;;;;;5.93;3.35;;;;;;;6.24;100.00;101486.72;4898205;29;20767;-68
2023/03/16 08:58:03;;;;;;;5.05;3.03;;;;;;;6.26;100.00;101485.66;4912075;29;20058;-70
2023/03/16 09:00:29;;;;;;;6.38;3.10;;;;;;;6.30;100.00;101481.09;4911244;29;20056;-71
2023/03/16 09:02:56;;;;;;;4.68;2.92;;;;;;;6.22;100.00;101489.41;4902388;29;20146;-68
2023/03/16 09:05:24;;;;;;;5.65;3.30;;;;;;;6.31;100.00;101467.97;4912038;29;20482;-69
2023/03/16 09:07:52;;;;;;;4.85;3.08;;;;;;;6.30;100.00;101473.28;4909610;29;20052;-69
2023/03/16 09:10:21;;;;;;;5.93;2.67;;;;;;;6.35;100.00;101468.59;4911918;29;20108;-68
2023/03/16 09:12:50;;;;;;;4.50;3.17;;;;;;;6.45;100.00;101477.47;4885266;29;20109;-69
2023/03/16 09:15:19;;;;;;;4.65;3.13;;;;;;;6.44;100.00;101481.00;4902837;29;20055;-68
2023/03/16 09:17:46;;;;;;;;;;;;;;;6.41;100.00;101480.34;4895823;29;20458;-68
2023/03/16 09:20:16;;;;;;;7.00;3.00;;;;;;;6.47;100.00;101474.75;4908841;29;19933;-69
2023/03/16 09:22:55;;;;;;;7.38;3.05;;;;;;;6.50;100.00;101474.53;4910917;29;20080;-69
2023/03/16 09:25:24;;;;;;;5.18;2.70;;;;;;;6.54;100.00;101469.00;4904263;29;20060;-68
2023/03/16 09:27:51;;;;;;;5.03;2.88;;;;;;;6.55;100.00;101477.69;4912181;29;20159;-69
2023/03/16 09:30:18;;;;;;;7.90;3.10;;;;;;;6.62;100.00;101468.47;4898489;29;20050;-68
2023/03/16 09:32:47;;;;;;;5.38;3.03;;;;;;;6.61;100.00;101464.22;4913931;29;20060;-68
2023/03/16 09:35:14;;;;;;;7.32;3.28;;;;;;;6.63;100.00;101453.69;4905735;29;20773;-69
2023/03/16 09:37:40;;;;;;;6.95;2.97;;;;;;;6.79;100.00;101469.13;4910817;29;20052;-68
2023/03/16 09:40:20;;;;;;;5.72;2.70;;;;;;;6.81;100.00;101472.44;4920996;29;20078;-68
2023/03/16 09:43:03;;;;;;;4.55;2.50;;;;;;;6.81;100.00;101472.44;4908696;29;20138;-68
2023/03/16 09:46:02;;;;;;;4.40;2.95;;;;;;;6.88;100.00;101477.13;4907016;29;20084;-70
2023/03/16 09:48:34;;;;;;;6.15;3.15;;;;;;;6.89;100.00;101467.53;4901593;29;20059;-69
2023/03/16 09:51:04;;;;;;;6.18;2.95;;;;;;;6.93;100.00;101471.59;4893642;29;20410;-69
2023/03/16 09:53:35;;;;;;;7.80;3.17;;;;;;;6.93;100.00;101459.38;4905437;29;20094;-69
2023/03/16 09:56:07;;;;;;;4.53;2.72;;;;;;;7.01;100.00;101464.06;4906287;29;20063;-71
2023/03/16 09:58:35;;;;;;;6.82;2.60;;;;;;;7.04;100.00;101461.25;4901720;29;20059;-69
2023/03/16 10:01:15;;;;;;;7.32;2.83;;;;;;;7.03;100.00;101467.38;4912405;29;20092;-69
2023/03/16 10:03:48;;;;;;;6.43;2.85;;;;;;;7.06;100.00;101458.53;4907334;29;20059;-69
2023/03/16 10:06:15;;;;;;;4.18;2.80;;;;;;;7.13;100.00;101464.97;4910085;29;20052;-69
2023/03/16 10:08:51;;;;;;;5.03;2.90;;;;;;;7.18;100.00;101462.88;4910621;29;20502;-69
2023/03/16 10:11:38;;;;;;;6.05;2.88;;;;;;;7.26;100.00;101449.28;4898013;29;20147;-68
2023/03/16 10:14:12;;;;;;;5.45;2.90;;;;;;;7.34;100.00;101444.34;4910714;29;20048;-69
2023/03/16 10:16:50;;;;;;;4.43;2.90;;;;;;;7.34;100.00;101444.34;4904639;29;20169;-69
2023/03/16 10:19:29;;;;;;;4.85;2.65;;;;;;;7.44;100.00;101436.69;4916500;29;20044;-69
2023/03/16 10:21:58;;;;;;;8.80;3.03;;;;;;;7.53;100.00;101446.47;4910202;29;20166;-69
2023/03/16 10:24:36;;;;;;;;;;;;;;;7.64;100.00;101446.50;4909658;29;20070;-70
2023/03/16 10:27:11;;;;;;;6.45;2.95;;;;;;;7.69;100.00;101431.34;4901703;29;20009;-70
2023/03/16 10:29:38;;;;;;;6.20;3.15;;;;;;;7.81;100.00;101421.78;4912173;29;20058;-70
2023/03/16 10:32:16;;;;;;;5.10;3.10;;;;;;;8.04;100.00;101432.31;4914877;29;20451;-70
2023/03/16 10:34:47;;;;;;;6.25;3.42;;;;;;;8.20;100.00;101427.59;4907948;29;20074;-69
2023/03/16 10:37:14;;;;;;;5.00;2.88;;;;;;;8.35;100.00;101422.13;4903886;29;20052;-71
2023/03/16 10:39:41;;;;;;;4.22;2.88;;;;;;;8.48;100.00;101412.44;4900925;29;20116;-68
2023/03/16 10:42:16;;;;;;;6.87;3.40;;;;;;;8.73;100.00;101408.75;4920706;29;20549;-68
2023/03/16 10:44:44;;;;;;;5.05;2.60;;;;;;;8.80;98.40;101407.34;4905289;29;20478;-69
2023/03/16 10:47:28;;;;;;;5.40;2.72;;;;;;;8.86;92.97;101413.84;4913625;29;20486;-69
2023/03/16 10:49:54;;;;;;;6.45;2.50;;;;;;;8.85;95.98;101406.97;4907547;29;20112;-70
2023/03/16 10:52:39;;;;;;;5.28;2.95;;;;;;;8.99;93.97;101409.31;4910379;29;20097;-69
2023/03/16 10:55:16;;;;;;;4.25;2.60;;;;;;;9.08;94.78;101397.28;4915518;29;20061;-70
2023/03/16 10:57:48;;;;;;;3.67;2.53;;;;;;;9.22;92.80;101398.81;4908652;29;20063;-69
2023/03/16 11:00:21;;;;;;;4.88;2.60;;;;;;;9.37;89.97;101397.56;4913821;29;20055;-70
2023/03/16 11:02:49;;;;;;;6.38;2.72;;;;;;;9.60;88.92;101384.38;4903845;29;20066;-69
2023/03/16 11:05:16;;;;;;;5.05;3.13;;;;;;;9.79;88.39;101391.56;4912167;29;20040;-71
2023/03/16 11:07:57;;;;;;;7.95;3.05;;;;;;;9.91;83.75;101398.38;4900173;29;20144;-69
2023/03/16 11:10:27;;;;;;;7.22;2.72;;;;;;;10.06;83.01;101386.63;4900306;29;20052;-72
2023/03/16 11:12:54;;;;;;;6.80;3.47;;;;;;;10.01;80.05;101382.72;4908370;29;20056;-72
2023/03/16 11:15:27;;;;;;;5.78;3.55;;;;;;;9.97;80.51;101390.00;4913285;29;20052;-72
2023/03/16 11:17:54;;;;;;;6.43;3.85;;;;;;;10.07;80.76;101379.59;4912924;29;20056;-69
2023/03/16 11:20:27;;;;;;;8.32;4.13;;;;;;;10.20;80.30;101372.34;4904981;29;20043;-71
2023/03/16 11:22:54;;;;;;;6.28;3.75;;;;;;;10.34;81.12;101371.19;4908757;29;20086;-70
2023/03/16 11:25:45;;;;;;;9.23;4.22;;;;;;;10.40;77.57;101370.66;4906267;29;20493;-70
2023/03/16 11:28:31;;;;;;;6.03;3.47;;;;;;;10.39;76.03;101373.41;4913031;29;20111;-69
2023/03/16 11:31:12;;;;;;;9.98;4.32;;;;;;;10.49;76.13;101362.00;4900607;29;20682;-70
2023/03/16 11:33:39;;;;;;;8.80;4.22;;;;;;;10.50;76.99;101354.97;4908456;29;20056;-72
2023/03/16 11:36:19;;;;;;;6.70;4.13;;;;;;;10.55;76.82;101360.66;4905373;29;20071;-70
2023/03/16 11:39:03;;;;;;;6.90;4.10;;;;;;;10.58;73.90;101368.25;4911274;29;20138;-70